Time;durP1;ratioP1;P1;durP2;ratioP2;P2;SDS_P1;SDS_P2;PMS_P1;PMS_P2;Temp;Humidity;BMP_temperature;BMP_pressure;BME280_temperature;BME280_humidity;BME280_pressure;Samples;Min_cycle;Max_cycle;Signal;HPM_P1;HPM_P2
2022/07/29 00:01:42;;;;;;;10.75;3.95;;;28.70;96.70;;;;;;5060160;28;20136;-81
2022/07/29 00:04:11;;;;;;;4.93;2.90;;;28.70;96.70;;;;;;5065012;28;20090;-83
2022/07/29 00:06:40;;;;;;;7.05;3.25;;;28.70;96.70;;;;;;5064076;28;20049;-83
2022/07/29 00:09:08;;;;;;;5.78;2.67;;;28.50;96.70;;;;;;5088648;28;20044;-83
2022/07/29 00:11:38;;;;;;;8.88;3.17;;;28.50;96.70;;;;;;5063096;28;20044;-83
2022/07/29 00:14:06;;;;;;;8.35;3.50;;;28.50;96.70;;;;;;5065587;28;20415;-83
2022/07/29 00:16:35;;;;;;;4.93;3.03;;;28.50;96.70;;;;;;5069178;28;20055;-83
2022/07/29 00:19:04;;;;;;;5.55;2.45;;;28.40;96.70;;;;;;5070687;28;20517;-83
2022/07/29 00:21:34;;;;;;;4.72;3.00;;;28.40;96.70;;;;;;5066366;28;20139;-84
2022/07/29 00:24:03;;;;;;;7.50;2.70;;;28.40;96.70;;;;;;5060788;28;20060;-84
2022/07/29 00:26:32;;;;;;;7.85;3.58;;;28.40;96.70;;;;;;5063125;28;20660;-83
2022/07/29 00:29:03;;;;;;;5.03;2.92;;;28.40;96.70;;;;;;5063236;28;20045;-84
2022/07/29 00:31:52;;;;;;;8.45;3.33;;;28.40;96.70;;;;;;5062911;28;20048;-84
2022/07/29 00:37:06;;;;;;;;;;;28.40;96.70;;;;;;5085589;28;20131;-84
2022/07/29 00:39:34;;;;;;;6.80;2.97;;;28.40;96.70;;;;;;5084649;28;19932;-85
2022/07/29 00:42:03;;;;;;;6.05;3.00;;;28.40;96.70;;;;;;5088908;28;20047;-85
2022/07/29 00:44:36;;;;;;;7.05;2.97;;;28.40;96.70;;;;;;5090032;28;20409;-85
2022/07/29 00:47:05;;;;;;;8.00;3.08;;;28.30;96.70;;;;;;5068558;28;20060;-85
2022/07/29 00:49:34;;;;;;;6.97;2.90;;;28.30;96.70;;;;;;5061276;28;20112;-85
2022/07/29 00:52:03;;;;;;;5.88;3.30;;;28.30;96.70;;;;;;5054015;28;20048;-85
2022/07/29 00:54:32;;;;;;;6.38;3.70;;;28.20;96.70;;;;;;5053400;28;20059;-85
2022/07/29 00:57:00;;;;;;;7.53;3.53;;;28.10;96.70;;;;;;5069437;28;20040;-85
2022/07/29 00:59:29;;;;;;;6.03;3.40;;;28.00;96.70;;;;;;5068496;28;20119;-85
2022/07/29 01:02:03;;;;;;;5.03;3.30;;;28.00;96.70;;;;;;5077072;28;20571;-85
2022/07/29 01:04:32;;;;;;;6.63;2.65;;;28.00;96.70;;;;;;5051557;28;20040;-82
2022/07/29 01:07:02;;;;;;;7.95;3.20;;;27.90;96.70;;;;;;5076498;28;20059;-82
2022/07/29 01:09:31;;;;;;;7.22;3.60;;;27.90;96.70;;;;;;5068244;28;20040;-82
2022/07/29 01:12:16;;;;;;;7.60;3.28;;;27.90;96.70;;;;;;5069205;28;20050;-81
2022/07/29 01:14:45;;;;;;;5.90;3.03;;;27.90;96.70;;;;;;5060337;28;20055;-81
2022/07/29 01:17:21;;;;;;;9.10;3.08;;;27.90;96.70;;;;;;5068800;28;20044;-81
2022/07/29 01:19:57;;;;;;;9.77;3.60;;;27.90;96.70;;;;;;5069413;28;20553;-81
2022/07/29 01:23:14;;;;;;;7.45;3.38;;;28.00;96.70;;;;;;5079124;28;20037;-81
2022/07/29 01:25:57;;;;;;;7.57;3.35;;;27.80;96.70;;;;;;5024111;28;20049;-81
2022/07/29 01:28:47;;;;;;;5.55;3.08;;;27.70;96.70;;;;;;5053550;28;20063;-81
2022/07/29 01:31:20;;;;;;;6.72;3.20;;;27.60;96.70;;;;;;5066902;28;20517;-81
2022/07/29 01:33:58;;;;;;;6.72;3.00;;;27.50;96.70;;;;;;5064360;28;20040;-81
2022/07/29 01:36:32;;;;;;;6.47;3.05;;;27.60;96.70;;;;;;5074243;28;20532;-81
2022/07/29 01:39:08;;;;;;;6.32;3.10;;;27.60;96.70;;;;;;5057026;28;20072;-82
2022/07/29 01:41:40;;;;;;;4.88;2.88;;;27.50;96.70;;;;;;5080222;28;20045;-84
2022/07/29 01:44:17;;;;;;;4.50;2.80;;;27.50;96.70;;;;;;5081232;28;20071;-84
2022/07/29 01:46:53;;;;;;;6.63;3.17;;;27.50;96.70;;;;;;5076915;28;20434;-84
2022/07/29 01:49:27;;;;;;;6.70;2.80;;;27.60;96.70;;;;;;5055452;28;20080;-84
2022/07/29 01:51:58;;;;;;;5.82;3.30;;;27.50;96.70;;;;;;5059663;28;20122;-83
2022/07/29 01:54:32;;;;;;;4.60;2.80;;;27.40;96.70;;;;;;5067604;28;20044;-84
2022/07/29 01:57:02;;;;;;;5.85;3.08;;;27.40;96.70;;;;;;5060447;28;20276;-84
2022/07/29 01:59:33;;;;;;;6.82;2.97;;;27.40;96.70;;;;;;5082123;28;20048;-84
2022/07/29 02:02:04;;;;;;;5.78;2.97;;;27.30;96.70;;;;;;5052980;28;20155;-84
2022/07/29 02:04:35;;;;;;;5.28;3.10;;;27.20;96.70;;;;;;5076788;28;20044;-84
2022/07/29 02:07:06;;;;;;;9.10;3.50;;;27.20;96.70;;;;;;5067149;28;20052;-84
2022/07/29 02:09:37;;;;;;;5.25;3.10;;;27.30;96.70;;;;;;5075507;28;20056;-84
2022/07/29 02:12:07;;;;;;;8.07;3.03;;;27.30;96.70;;;;;;5063318;28;20123;-85
2022/07/29 02:14:39;;;;;;;4.28;2.75;;;27.30;96.70;;;;;;5068095;28;20052;-84
2022/07/29 02:17:08;;;;;;;9.00;4.25;;;27.30;96.70;;;;;;5059348;28;20051;-85
2022/07/29 02:19:42;;;;;;;6.75;4.20;;;27.30;96.70;;;;;;5075057;28;20106;-85
2022/07/29 02:22:12;;;;;;;5.28;3.25;;;27.30;96.70;;;;;;5087832;28;20052;-85
2022/07/29 02:24:42;;;;;;;10.48;4.38;;;27.30;96.70;;;;;;5059285;28;20051;-85
2022/07/29 02:27:11;;;;;;;7.68;4.30;;;27.30;96.70;;;;;;5090831;28;20093;-85
2022/07/29 02:29:43;;;;;;;11.05;5.07;;;27.30;96.70;;;;;;5069773;28;20048;-85
2022/07/29 02:32:13;;;;;;;8.30;5.28;;;27.10;96.70;;;;;;5050639;28;20048;-85
2022/07/29 02:34:42;;;;;;;6.18;4.05;;;27.00;96.70;;;;;;5060084;28;20094;-85
2022/07/29 02:37:12;;;;;;;7.70;3.97;;;26.80;96.70;;;;;;5065486;28;20045;-85
2022/07/29 02:39:43;;;;;;;11.32;4.10;;;26.80;96.70;;;;;;5068357;28;20041;-84
2022/07/29 02:42:15;;;;;;;9.85;5.13;;;26.90;96.70;;;;;;5069727;28;20118;-85
2022/07/29 02:44:45;;;;;;;5.60;3.78;;;26.80;96.70;;;;;;5079894;28;20040;-84
2022/07/29 02:47:19;;;;;;;7.15;4.32;;;26.80;96.70;;;;;;5067434;28;20044;-84
2022/07/29 02:49:53;;;;;;;8.95;4.15;;;26.90;96.70;;;;;;5079420;28;20060;-84
2022/07/29 02:52:27;;;;;;;7.07;4.28;;;27.00;96.70;;;;;;5069822;28;20504;-84
2022/07/29 02:55:07;;;;;;;8.02;4.60;;;27.00;96.70;;;;;;5089689;28;20032;-84
2022/07/29 02:57:41;;;;;;;6.03;3.88;;;27.10;96.70;;;;;;5074345;28;20053;-84
2022/07/29 03:00:26;;;;;;;6.65;4.28;;;27.10;96.70;;;;;;5075821;28;20044;-84
2022/07/29 03:02:59;;;;;;;5.50;3.55;;;27.00;96.70;;;;;;5055382;28;20052;-85
2022/07/29 03:05:29;;;;;;;7.90;3.60;;;27.00;96.70;;;;;;5060803;28;20045;-84
2022/07/29 03:08:01;;;;;;;7.30;3.67;;;26.90;96.70;;;;;;5085394;28;20068;-84
2022/07/29 03:10:30;;;;;;;9.02;3.95;;;26.90;96.70;;;;;;5077576;28;20041;-83
2022/07/29 03:12:59;;;;;;;5.80;4.00;;;26.90;96.70;;;;;;5067467;28;20166;-84
2022/07/29 03:15:30;;;;;;;6.97;3.53;;;26.90;96.70;;;;;;5072913;28;20045;-84
2022/07/29 03:17:59;;;;;;;5.47;3.55;;;26.90;96.70;;;;;;5071334;28;20135;-84
2022/07/29 03:20:28;;;;;;;7.30;3.60;;;26.80;96.70;;;;;;5070396;28;20163;-84
2022/07/29 03:22:56;;;;;;;5.82;3.42;;;26.70;96.70;;;;;;5073023;28;20124;-84
2022/07/29 03:25:24;;;;;;;5.35;3.22;;;26.60;96.70;;;;;;5046217;28;20090;-84
2022/07/29 03:27:52;;;;;;;7.22;3.10;;;26.50;96.70;;;;;;5070422;28;20076;-84
2022/07/29 03:30:20;;;;;;;7.47;3.22;;;26.50;96.70;;;;;;5087115;28;20040;-84
2022/07/29 03:32:52;;;;;;;7.65;3.28;;;26.50;96.70;;;;;;5086165;28;20032;-84
2022/07/29 03:35:20;;;;;;;5.60;3.22;;;26.40;96.70;;;;;;5078778;28;20055;-85
2022/07/29 03:37:48;;;;;;;5.47;3.30;;;26.50;96.70;;;;;;5089544;28;20059;-85
2022/07/29 03:40:23;;;;;;;4.15;3.10;;;26.40;96.70;;;;;;5072373;28;20045;-86
2022/07/29 03:42:53;;;;;;;5.20;2.97;;;26.40;96.70;;;;;;5066129;28;20063;-85
2022/07/29 03:45:22;;;;;;;6.93;3.53;;;26.40;96.70;;;;;;5086666;28;20126;-85
2022/07/29 03:48:01;;;;;;;6.80;3.80;;;26.50;96.70;;;;;;5065330;28;20072;-85
2022/07/29 03:50:30;;;;;;;5.18;3.40;;;26.50;96.70;;;;;;5075854;28;20123;-83
2022/07/29 03:52:58;;;;;;;5.63;3.25;;;26.50;96.70;;;;;;5071090;28;20611;-85
2022/07/29 03:55:29;;;;;;;7.65;3.38;;;26.50;96.70;;;;;;5075886;28;20139;-83
2022/07/29 03:57:59;;;;;;;4.47;2.92;;;26.30;96.70;;;;;;5071217;28;20049;-84
2022/07/29 04:00:29;;;;;;;5.68;3.42;;;26.20;96.70;;;;;;5069889;28;20089;-84
2022/07/29 04:03:00;;;;;;;7.75;3.75;;;26.20;96.70;;;;;;5085836;28;20574;-83
2022/07/29 04:05:28;;;;;;;5.07;3.13;;;26.20;96.70;;;;;;5092814;28;20040;-84
2022/07/29 04:07:56;;;;;;;8.27;3.45;;;26.30;96.70;;;;;;5085629;28;20055;-84
2022/07/29 04:10:24;;;;;;;5.60;3.45;;;26.20;96.70;;;;;;5051403;28;20071;-83
2022/07/29 04:12:59;;;;;;;7.65;4.45;;;26.30;96.70;;;;;;5083369;28;20129;-84
2022/07/29 04:15:28;;;;;;;6.75;3.15;;;26.30;96.70;;;;;;5075175;28;20041;-83
2022/07/29 04:18:00;;;;;;;5.65;3.58;;;26.30;96.70;;;;;;5089336;28;20097;-84
2022/07/29 04:20:28;;;;;;;7.50;3.58;;;26.40;96.70;;;;;;5071949;28;20116;-84
2022/07/29 04:22:56;;;;;;;5.30;3.10;;;26.30;96.70;;;;;;5076594;28;20048;-84
2022/07/29 04:25:24;;;;;;;8.93;3.78;;;26.40;96.70;;;;;;5083540;28;20101;-83
2022/07/29 04:28:01;;;;;;;6.13;3.65;;;26.40;96.70;;;;;;5085658;28;20052;-83
2022/07/29 04:30:30;;;;;;;7.15;3.42;;;26.40;96.70;;;;;;5057853;28;20045;-81
2022/07/29 04:33:01;;;;;;;5.95;3.58;;;26.50;96.70;;;;;;5069057;28;20427;-80
2022/07/29 04:35:30;;;;;;;7.28;3.65;;;26.30;96.70;;;;;;5073290;28;20048;-81
2022/07/29 04:38:06;;;;;;;9.05;3.05;;;26.20;96.70;;;;;;5061605;28;20178;-81
2022/07/29 04:40:42;;;;;;;6.68;3.55;;;26.30;96.70;;;;;;5042980;28;20045;-81
2022/07/29 04:43:10;;;;;;;8.07;3.60;;;26.40;96.70;;;;;;5052773;28;20048;-81
2022/07/29 04:45:42;;;;;;;7.93;3.53;;;26.40;96.70;;;;;;5058536;28;20069;-81
2022/07/29 04:48:11;;;;;;;5.13;3.55;;;26.30;96.70;;;;;;5062051;28;20460;-81
2022/07/29 04:50:40;;;;;;;5.68;2.90;;;26.30;96.70;;;;;;5057425;28;20486;-81
2022/07/29 04:53:08;;;;;;;5.10;3.00;;;26.40;96.70;;;;;;5045931;28;20089;-81
2022/07/29 04:55:36;;;;;;;7.97;3.25;;;26.40;96.70;;;;;;5056117;28;20072;-81
2022/07/29 04:58:06;;;;;;;5.22;3.30;;;26.40;96.70;;;;;;5059826;28;20044;-81
2022/07/29 05:00:34;;;;;;;6.18;3.67;;;26.50;96.70;;;;;;5072551;28;20494;-81
2022/07/29 05:03:02;;;;;;;4.63;3.05;;;26.60;96.70;;;;;;5057152;28;20167;-82
2022/07/29 05:05:32;;;;;;;5.40;3.42;;;26.50;96.70;;;;;;5075385;28;20501;-81
2022/07/29 05:08:00;;;;;;;6.82;3.47;;;26.50;96.70;;;;;;5060722;28;20082;-81
2022/07/29 05:10:28;;;;;;;10.10;3.67;;;26.50;96.70;;;;;;5060113;28;20091;-81
2022/07/29 05:12:56;;;;;;;6.40;3.55;;;26.50;96.70;;;;;;5051554;28;20590;-81
2022/07/29 05:15:25;;;;;;;8.00;3.95;;;26.50;96.70;;;;;;5057165;28;20045;-81
2022/07/29 05:17:53;;;;;;;6.70;3.55;;;26.60;96.70;;;;;;5084224;28;20060;-80
2022/07/29 05:20:25;;;;;;;7.15;3.65;;;26.60;96.70;;;;;;5077657;28;20522;-81
2022/07/29 05:22:55;;;;;;;6.72;3.90;;;26.60;96.70;;;;;;5055779;28;20033;-81
2022/07/29 05:25:23;;;;;;;5.55;3.25;;;26.70;96.70;;;;;;5060676;28;20045;-82
2022/07/29 05:28:10;;;;;;;;;;;26.70;96.70;;;;;;5065482;28;20048;-81
2022/07/29 05:30:38;;;;;;;8.57;3.50;;;26.60;96.70;;;;;;5082766;28;19923;-81
2022/07/29 05:33:07;;;;;;;4.28;3.70;;;26.60;96.70;;;;;;5062754;28;20053;-82
2022/07/29 05:35:55;;;;;;;9.75;4.90;;;26.70;96.70;;;;;;5065382;28;20128;-82
2022/07/29 05:38:31;;;;;;;7.60;5.63;;;26.90;96.70;;;;;;5059801;28;20446;-81
2022/07/29 05:40:59;;;;;;;9.73;5.85;;;27.00;96.70;;;;;;5066326;28;20470;-84
2022/07/29 05:43:28;;;;;;;7.97;5.20;;;26.90;96.70;;;;;;5063766;28;20041;-84
2022/07/29 05:45:57;;;;;;;10.18;6.32;;;26.90;96.70;;;;;;5058777;28;20472;-84
2022/07/29 05:48:25;;;;;;;10.93;7.25;;;26.90;96.70;;;;;;5059810;28;20045;-84
2022/07/29 05:50:54;;;;;;;13.10;5.93;;;27.00;96.70;;;;;;5083634;28;20559;-84
2022/07/29 05:53:22;;;;;;;10.75;6.00;;;26.90;96.70;;;;;;5078939;28;20041;-84
2022/07/29 05:55:52;;;;;;;11.10;5.72;;;26.80;96.70;;;;;;5065219;28;20445;-83
2022/07/29 05:58:20;;;;;;;8.77;5.47;;;26.80;96.70;;;;;;5074585;28;20068;-84
2022/07/29 06:00:52;;;;;;;9.43;5.80;;;26.90;96.70;;;;;;5083213;28;20048;-84
2022/07/29 06:03:21;;;;;;;11.35;6.00;;;27.10;96.70;;;;;;5082759;28;20525;-84
2022/07/29 06:05:49;;;;;;;14.18;5.63;;;27.20;96.70;;;;;;5067155;28;20066;-84
2022/07/29 06:08:18;;;;;;;7.50;5.68;;;27.10;96.70;;;;;;5064540;28;20041;-83
2022/07/29 06:10:46;;;;;;;13.32;5.57;;;27.20;96.70;;;;;;5067645;28;20041;-84
2022/07/29 06:13:16;;;;;;;10.43;4.88;;;27.20;96.70;;;;;;5083910;28;20068;-83
2022/07/29 06:15:45;;;;;;;8.27;5.38;;;27.10;96.70;;;;;;5067350;28;20060;-82
2022/07/29 06:18:13;;;;;;;10.32;5.03;;;27.20;96.70;;;;;;5070367;28;20050;-83
2022/07/29 06:20:42;;;;;;;9.75;4.45;;;27.30;96.70;;;;;;5066557;28;20067;-83
2022/07/29 06:23:10;;;;;;;9.02;4.05;;;27.20;96.70;;;;;;5074352;28;20119;-83
2022/07/29 06:25:40;;;;;;;13.52;4.32;;;27.30;96.70;;;;;;5070642;28;20048;-83
2022/07/29 06:28:08;;;;;;;11.80;5.80;;;27.40;96.70;;;;;;5072461;28;20083;-84
2022/07/29 06:30:38;;;;;;;10.48;5.57;;;27.40;96.70;;;;;;5045331;28;20056;-84
2022/07/29 06:33:06;;;;;;;10.55;4.97;;;27.50;96.70;;;;;;5047079;28;20507;-84
2022/07/29 06:35:35;;;;;;;8.40;4.20;;;27.50;96.70;;;;;;5074276;28;20044;-83
2022/07/29 06:38:09;;;;;;;11.02;4.65;;;27.60;96.70;;;;;;5082403;28;20122;-83
2022/07/29 06:41:05;;;;;;;9.00;4.90;;;27.80;96.70;;;;;;5075281;28;20045;-83
2022/07/29 06:43:37;;;;;;;9.07;4.90;;;27.90;96.70;;;;;;5066217;28;20491;-83
2022/07/29 06:46:21;;;;;;;12.25;5.03;;;28.00;96.70;;;;;;5059789;28;20107;-82
2022/07/29 06:48:51;;;;;;;11.55;4.85;;;28.00;96.70;;;;;;5059254;28;20049;-83
2022/07/29 06:51:20;;;;;;;7.50;4.45;;;27.90;96.70;;;;;;5080775;28;20234;-86
2022/07/29 06:53:51;;;;;;;9.63;4.22;;;28.00;96.70;;;;;;5066121;28;20074;-84
2022/07/29 06:56:30;;;;;;;12.40;5.68;;;28.00;96.70;;;;;;5061367;28;20041;-84
2022/07/29 06:59:05;;;;;;;9.95;4.90;;;27.90;96.70;;;;;;5064813;28;20662;-87
2022/07/29 07:01:35;;;;;;;9.13;4.80;;;27.80;96.70;;;;;;5059996;28;20136;-84
2022/07/29 07:04:03;;;;;;;11.40;4.78;;;27.80;96.70;;;;;;5078054;28;20913;-82
2022/07/29 07:06:31;;;;;;;10.13;4.40;;;27.90;96.70;;;;;;5050824;28;20502;-86
2022/07/29 07:08:59;;;;;;;13.25;5.40;;;28.00;96.70;;;;;;5068069;28;20048;-86
2022/07/29 07:11:28;;;;;;;8.60;4.78;;;28.10;96.70;;;;;;5065877;28;20045;-85
2022/07/29 07:13:56;;;;;;;8.98;4.07;;;28.10;96.70;;;;;;5059416;28;20045;-83
2022/07/29 07:16:31;;;;;;;11.68;5.10;;;28.20;96.70;;;;;;5067718;28;20048;-86
2022/07/29 07:19:01;;;;;;;12.98;5.03;;;28.30;96.70;;;;;;5068912;28;20046;-82
2022/07/29 07:21:29;;;;;;;10.40;4.50;;;28.40;96.70;;;;;;5065447;28;20701;-83
2022/07/29 07:23:58;;;;;;;10.02;5.03;;;28.40;96.70;;;;;;5062387;28;20044;-82
2022/07/29 07:26:27;;;;;;;13.40;4.63;;;28.60;96.70;;;;;;5050958;28;20523;-80
2022/07/29 07:28:55;;;;;;;11.30;4.88;;;28.60;96.70;;;;;;5063715;28;20398;-80
2022/07/29 07:31:23;;;;;;;8.38;4.15;;;28.50;96.70;;;;;;5080145;28;20518;-80
2022/07/29 07:33:53;;;;;;;10.13;4.50;;;28.50;96.70;;;;;;5065612;28;20486;-78
2022/07/29 07:36:23;;;;;;;10.98;4.40;;;28.60;96.70;;;;;;5056272;28;20055;-80
2022/07/29 07:38:52;;;;;;;9.38;4.30;;;28.70;96.70;;;;;;5078877;28;20044;-79
2022/07/29 07:41:22;;;;;;;9.10;4.90;;;28.80;96.70;;;;;;5074575;28;20123;-80
2022/07/29 07:43:50;;;;;;;10.57;4.40;;;28.80;96.70;;;;;;5075738;28;20052;-82
2022/07/29 07:46:19;;;;;;;9.35;4.45;;;28.80;96.70;;;;;;5058713;28;20048;-79
2022/07/29 07:48:47;;;;;;;9.77;4.93;;;28.90;96.70;;;;;;5068137;28;20061;-81
2022/07/29 07:51:16;;;;;;;7.53;4.40;;;28.90;96.70;;;;;;5059862;28;20037;-80
2022/07/29 07:53:49;;;;;;;13.48;5.18;;;29.00;96.70;;;;;;5060305;28;20052;-80
2022/07/29 07:56:17;;;;;;;13.05;4.57;;;29.00;96.70;;;;;;5068601;28;20045;-80
2022/07/29 07:58:45;;;;;;;10.57;5.20;;;29.00;96.70;;;;;;5060683;28;20036;-78
2022/07/29 08:01:14;;;;;;;13.23;5.85;;;29.00;96.70;;;;;;5057493;28;20151;-77
2022/07/29 08:03:42;;;;;;;13.27;5.72;;;29.00;96.70;;;;;;5063769;28;20051;-77
2022/07/29 08:06:10;;;;;;;12.82;5.78;;;28.90;96.70;;;;;;5053684;28;20050;-77
2022/07/29 08:08:38;;;;;;;13.07;5.85;;;29.00;96.70;;;;;;5061527;28;20064;-79
2022/07/29 08:11:08;;;;;;;15.38;5.55;;;29.10;96.70;;;;;;5053865;28;20063;-81
2022/07/29 08:13:37;;;;;;;11.85;5.05;;;29.20;96.70;;;;;;5076318;28;20044;-79
2022/07/29 08:16:12;;;;;;;11.18;5.35;;;29.30;96.70;;;;;;5061228;28;20040;-78
2022/07/29 08:18:42;;;;;;;11.60;5.03;;;29.40;96.70;;;;;;5083651;28;20098;-80
2022/07/29 08:21:10;;;;;;;12.40;5.20;;;29.50;96.70;;;;;;5066772;28;20041;-80
2022/07/29 08:23:47;;;;;;;11.95;5.03;;;29.60;96.70;;;;;;5077795;28;20513;-80
2022/07/29 08:26:26;;;;;;;9.07;5.03;;;29.70;96.70;;;;;;5075105;28;20584;-80
2022/07/29 08:28:54;;;;;;;9.82;5.40;;;29.70;96.70;;;;;;5057630;28;20784;-80
2022/07/29 08:31:22;;;;;;;10.77;5.25;;;29.70;96.70;;;;;;5053332;28;20612;-80
2022/07/29 08:33:50;;;;;;;11.38;5.72;;;29.70;96.70;;;;;;5060144;28;20363;-81
2022/07/29 08:36:20;;;;;;;10.80;5.38;;;29.60;96.70;;;;;;5059789;28;20048;-84
2022/07/29 08:38:49;;;;;;;11.18;4.95;;;29.60;96.70;;;;;;5080800;28;20094;-82
2022/07/29 08:41:18;;;;;;;10.10;5.25;;;29.70;96.70;;;;;;5075982;28;20139;-85
2022/07/29 08:43:49;;;;;;;6.88;3.53;;;29.80;96.70;;;;;;5066395;28;20048;-84
2022/07/29 08:46:17;;;;;;;4.50;2.90;;;29.80;96.70;;;;;;5038852;28;20049;-83
2022/07/29 08:48:45;;;;;;;7.22;3.58;;;29.90;96.70;;;;;;5083233;28;20052;-85
2022/07/29 08:51:15;;;;;;;9.75;3.90;;;30.10;96.70;;;;;;5058465;28;20066;-81
2022/07/29 08:53:45;;;;;;;7.45;3.72;;;30.20;96.70;;;;;;5052307;28;20049;-81
2022/07/29 08:56:14;;;;;;;11.60;3.97;;;30.30;96.70;;;;;;5062574;28;20044;-81
2022/07/29 08:58:42;;;;;;;11.52;4.25;;;30.30;96.70;;;;;;5083780;28;20052;-86
2022/07/29 09:01:23;;;;;;;11.23;4.47;;;30.20;96.70;;;;;;5075786;28;20125;-83
2022/07/29 09:04:11;;;;;;;7.00;3.38;;;30.30;96.70;;;;;;5081726;28;20055;-83
2022/07/29 09:06:45;;;;;;;7.32;3.50;;;30.40;96.70;;;;;;5060842;28;20059;-82
2022/07/29 09:09:14;;;;;;;7.93;3.42;;;30.40;96.70;;;;;;5059531;28;20700;-82
2022/07/29 09:11:42;;;;;;;7.53;2.65;;;30.50;96.70;;;;;;5060825;28;20041;-81
2022/07/29 09:14:12;;;;;;;7.60;3.17;;;30.60;96.70;;;;;;5055772;28;20079;-83
2022/07/29 09:17:00;;;;;;;4.90;2.65;;;30.70;96.70;;;;;;5075386;28;20079;-83
2022/07/29 09:19:30;;;;;;;5.50;2.78;;;30.80;96.70;;;;;;5072279;28;20064;-84
2022/07/29 09:22:01;;;;;;;5.93;2.55;;;30.90;96.70;;;;;;5064998;28;20976;-84
2022/07/29 09:24:44;;;;;;;6.03;2.80;;;30.90;96.70;;;;;;5059505;28;20043;-83
2022/07/29 09:27:21;;;;;;;3.67;2.00;;;30.90;96.70;;;;;;5044092;28;20041;-85
2022/07/29 09:30:00;;;;;;;3.17;2.25;;;31.00;96.70;;;;;;5082033;28;20823;-87
2022/07/29 09:32:30;;;;;;;4.53;2.10;;;31.00;96.70;;;;;;5069633;28;20045;-88
2022/07/29 09:35:17;;;;;;;9.13;3.05;;;31.10;96.70;;;;;;5067593;28;20079;-87
2022/07/29 09:37:46;;;;;;;5.15;2.30;;;31.20;96.70;;;;;;5053027;28;20045;-87
2022/07/29 09:40:16;;;;;;;5.38;2.40;;;31.20;96.70;;;;;;5082786;28;20748;-85
2022/07/29 09:42:45;;;;;;;4.47;2.45;;;31.30;96.70;;;;;;5084108;28;20048;-88
2022/07/29 09:45:25;;;;;;;5.00;2.72;;;31.50;96.70;;;;;;5077795;28;20135;-86
2022/07/29 09:48:12;;;;;;;4.03;2.30;;;31.50;96.70;;;;;;5082128;28;20042;-86
2022/07/29 09:50:43;;;;;;;3.00;2.20;;;31.60;96.70;;;;;;5082497;28;20052;-86
2022/07/29 09:53:11;;;;;;;4.90;2.17;;;31.60;96.70;;;;;;5061412;28;20402;-85
2022/07/29 09:55:48;;;;;;;2.55;2.10;;;31.70;96.70;;;;;;5089637;28;20153;-87
2022/07/29 09:58:17;;;;;;;4.45;2.13;;;31.80;96.70;;;;;;5078050;28;20052;-87
2022/07/29 10:00:46;;;;;;;3.58;2.33;;;31.80;96.70;;;;;;5067399;28;20036;-86
2022/07/29 10:03:16;;;;;;;5.13;2.47;;;31.80;96.70;;;;;;5069537;28;20053;-87
2022/07/29 10:05:46;;;;;;;4.82;2.80;;;31.90;96.70;;;;;;5067920;28;20052;-87
2022/07/29 10:08:24;;;;;;;3.55;2.33;;;32.00;96.70;;;;;;5067005;28;20040;-87
2022/07/29 10:11:09;;;;;;;6.90;3.00;;;32.10;96.70;;;;;;5067108;28;20090;-87
2022/07/29 10:13:38;;;;;;;6.60;2.25;;;32.00;96.70;;;;;;5064504;28;20040;-87
2022/07/29 10:16:07;;;;;;;4.90;2.20;;;32.10;96.70;;;;;;5065428;28;20037;-86
2022/07/29 10:18:40;;;;;;;4.10;2.10;;;32.20;96.70;;;;;;5082389;28;20044;-87
2022/07/29 10:21:09;;;;;;;5.05;2.83;;;32.20;96.70;;;;;;5082038;28;20068;-87
2022/07/29 10:23:49;;;;;;;5.22;2.65;;;32.20;96.70;;;;;;5053392;28;20545;-87
2022/07/29 10:26:19;;;;;;;3.53;2.33;;;32.40;96.70;;;;;;5063214;28;20099;-87
2022/07/29 10:28:47;;;;;;;6.15;2.40;;;32.40;96.70;;;;;;5079696;28;20519;-86
2022/07/29 10:31:40;;;;;;;4.88;2.33;;;32.50;96.70;;;;;;5073998;28;20048;-86
2022/07/29 10:34:20;;;;;;;5.43;2.38;;;32.70;96.70;;;;;;5062566;28;20505;-86
2022/07/29 10:37:00;;;;;;;4.72;2.00;;;32.80;96.70;;;;;;5061878;28;20045;-86
2022/07/29 10:39:42;;;;;;;4.90;2.22;;;33.00;96.70;;;;;;5057742;28;20136;-87
2022/07/29 10:42:21;;;;;;;4.20;2.00;;;33.10;96.70;;;;;;5080572;28;20048;-86
2022/07/29 10:45:03;;;;;;;5.05;2.05;;;33.10;96.70;;;;;;5057032;28;20041;-87
2022/07/29 10:47:32;;;;;;;5.82;2.15;;;33.30;96.70;;;;;;5087374;28;20109;-86
2022/07/29 10:50:06;;;;;;;5.03;2.50;;;33.40;96.70;;;;;;5083092;28;20771;-87
2022/07/29 10:52:53;;;;;;;8.20;2.00;;;33.40;96.70;;;;;;5069950;28;20049;-88
2022/07/29 10:55:34;;;;;;;4.43;2.35;;;33.40;96.70;;;;;;5057959;28;20060;-88
2022/07/29 10:58:14;;;;;;;5.40;2.20;;;33.40;96.70;;;;;;5063123;28;20044;-87
2022/07/29 11:00:45;;;;;;;5.10;1.80;;;33.40;96.70;;;;;;5077822;28;20086;-87
2022/07/29 11:03:45;;;;;;;4.50;1.88;;;33.40;96.70;;;;;;5068641;28;20044;-87
2022/07/29 11:06:18;;;;;;;5.15;2.10;;;33.70;96.70;;;;;;5071757;28;20052;-86
2022/07/29 11:09:18;;;;;;;6.20;1.92;;;33.80;96.70;;;;;;5071756;28;20048;-86
2022/07/29 11:12:02;;;;;;;5.80;2.10;;;33.80;96.70;;;;;;5070942;28;20112;-87
2022/07/29 11:14:58;;;;;;;5.82;2.13;;;34.00;96.70;;;;;;5071882;28;20044;-87
2022/07/29 11:17:27;;;;;;;5.90;2.10;;;34.00;96.70;;;;;;5072480;28;20045;-85
2022/07/29 11:20:33;;;;;;;3.83;1.95;;;34.00;96.70;;;;;;5070530;28;20052;-87
2022/07/29 11:23:27;;;;;;;4.20;2.00;;;34.10;96.70;;;;;;5059254;28;20528;-86
2022/07/29 11:26:16;;;;;;;4.13;1.83;;;34.30;96.70;;;;;;5087765;28;20048;-88
2022/07/29 11:28:56;;;;;;;3.95;2.30;;;34.40;96.70;;;;;;5088167;28;20048;-88
2022/07/29 11:31:37;;;;;;;5.00;1.95;;;34.50;96.70;;;;;;5076555;28;20052;-88
2022/07/29 11:34:24;;;;;;;5.13;2.22;;;34.50;96.70;;;;;;5076231;28;20490;-88
2022/07/29 11:37:21;;;;;;;6.30;2.05;;;34.50;96.70;;;;;;5057679;28;20048;-86
2022/07/29 11:40:15;;;;;;;6.18;2.40;;;34.50;96.70;;;;;;5071446;28;20135;-86
2022/07/29 11:42:47;;;;;;;4.07;1.85;;;34.40;96.70;;;;;;5073582;28;20041;-87
2022/07/29 11:45:21;;;;;;;5.28;1.58;;;34.20;96.70;;;;;;5049722;28;20048;-89
2022/07/29 11:48:16;;;;;;;4.90;1.88;;;34.30;96.70;;;;;;5059047;28;20045;-87
2022/07/29 11:51:00;;;;;;;4.68;1.73;;;34.30;96.70;;;;;;5064245;28;20044;-87
2022/07/29 11:53:35;;;;;;;3.60;1.80;;;34.20;96.70;;;;;;5063665;28;20051;-87
2022/07/29 11:56:09;;;;;;;7.60;2.13;;;34.20;96.70;;;;;;5080458;28;20053;-86
2022/07/29 11:58:43;;;;;;;6.72;2.10;;;34.30;96.70;;;;;;5062039;28;20052;-86
2022/07/29 12:01:16;;;;;;;5.35;2.00;;;34.30;96.70;;;;;;5071549;28;20071;-87
2022/07/29 12:03:45;;;;;;;6.43;1.77;;;34.40;96.70;;;;;;5089572;28;20032;-87
2022/07/29 12:06:15;;;;;;;5.25;1.80;;;34.20;96.70;;;;;;5084646;28;20045;-87
2022/07/29 12:08:47;;;;;;;4.95;1.88;;;34.30;96.70;;;;;;5087014;28;20079;-87
2022/07/29 12:11:20;;;;;;;7.82;2.33;;;34.20;96.70;;;;;;5070693;28;20070;-87
2022/07/29 12:13:51;;;;;;;6.97;2.22;;;34.30;96.70;;;;;;5067479;28;20221;-86
2022/07/29 12:16:20;;;;;;;4.38;1.85;;;34.40;96.70;;;;;;5067842;28;20044;-88
2022/07/29 12:18:58;;;;;;;4.00;1.73;;;34.30;96.70;;;;;;5088702;28;20439;-88
2022/07/29 12:21:27;;;;;;;3.78;1.90;;;34.30;96.70;;;;;;5072662;28;20119;-88
2022/07/29 12:23:57;;;;;;;4.70;2.10;;;34.50;96.70;;;;;;5074644;28;20052;-85
2022/07/29 12:26:48;;;;;;;4.45;2.25;;;34.70;96.70;;;;;;5089569;28;20098;-87
2022/07/29 12:29:17;;;;;;;5.55;1.75;;;34.50;96.70;;;;;;5077315;28;20052;-86
2022/07/29 12:32:01;;;;;;;5.15;2.10;;;34.50;96.70;;;;;;5064837;28;20052;-87
2022/07/29 12:34:30;;;;;;;4.95;1.80;;;34.50;96.70;;;;;;5073158;28;20528;-87
2022/07/29 12:36:59;;;;;;;4.57;1.92;;;34.40;96.70;;;;;;5057848;28;20052;-88
2022/07/29 12:39:28;;;;;;;5.45;1.73;;;34.40;96.70;;;;;;5060436;28;20048;-88
2022/07/29 12:41:58;;;;;;;4.97;2.05;;;34.50;96.70;;;;;;5083295;28;20090;-87
2022/07/29 12:44:46;;;;;;;4.60;2.20;;;34.70;96.70;;;;;;5084867;28;20108;-88
2022/07/29 12:47:15;;;;;;;5.03;2.00;;;34.50;96.70;;;;;;5068268;28;20044;-88
2022/07/29 12:49:44;;;;;;;4.75;1.95;;;34.60;96.70;;;;;;5049821;28;20075;-89
2022/07/29 12:52:26;;;;;;;6.93;2.38;;;34.70;96.70;;;;;;5064558;28;20048;-87
2022/07/29 12:54:55;;;;;;;4.22;1.58;;;34.80;96.70;;;;;;5081959;28;20041;-88
2022/07/29 12:57:25;;;;;;;8.45;2.20;;;34.70;96.70;;;;;;5076962;28;20041;-88
2022/07/29 13:00:10;;;;;;;3.60;1.85;;;34.40;96.70;;;;;;5067831;28;20049;-88
2022/07/29 13:02:43;;;;;;;5.28;1.67;;;34.30;96.70;;;;;;5063837;28;20057;-87
2022/07/29 13:05:12;;;;;;;10.05;2.13;;;34.40;96.70;;;;;;5068653;28;20115;-85
2022/07/29 13:07:46;;;;;;;3.83;1.65;;;34.60;96.70;;;;;;5068067;28;20044;-89
2022/07/29 13:10:24;;;;;;;3.88;1.90;;;34.50;96.70;;;;;;5061126;28;20147;-89
2022/07/29 13:13:06;;;;;;;3.17;1.90;;;34.50;96.70;;;;;;5081796;28;20043;-85
2022/07/29 13:15:35;;;;;;;4.32;2.08;;;34.60;96.70;;;;;;5076026;28;20044;-85
2022/07/29 13:18:04;;;;;;;2.58;1.50;;;34.80;96.70;;;;;;5069053;28;20044;-86